sensor_id;sensor_type;location;lat;lon;timestamp;P1;durP1;ratioP1;P2;durP2;ratioP2
10430;SDS011;5262;59.958;17.726;2023-03-03T00:02:07;4.63;;;0.97;;
10430;SDS011;5262;59.958;17.726;2023-03-03T00:04:33;3.67;;;1.27;;
10430;SDS011;5262;59.958;17.726;2023-03-03T00:06:58;3.93;;;0.87;;
10430;SDS011;5262;59.958;17.726;2023-03-03T00:09:24;3.23;;;0.90;;
10430;SDS011;5262;59.958;17.726;2023-03-03T00:11:53;6.10;;;1.00;;
10430;SDS011;5262;59.958;17.726;2023-03-03T00:14:21;5.23;;;0.87;;
10430;SDS011;5262;59.958;17.726;2023-03-03T00:16:54;4.30;;;0.87;;
10430;SDS011;5262;59.958;17.726;2023-03-03T00:19:21;4.20;;;1.20;;
10430;SDS011;5262;59.958;17.726;2023-03-03T00:21:51;2.87;;;0.90;;
10430;SDS011;5262;59.958;17.726;2023-03-03T00:24:23;4.13;;;0.77;;
10430;SDS011;5262;59.958;17.726;2023-03-03T00:26:59;6.07;;;0.83;;
10430;SDS011;5262;59.958;17.726;2023-03-03T00:29:30;7.37;;;1.20;;
10430;SDS011;5262;59.958;17.726;2023-03-03T00:32:27;5.77;;;0.80;;
10430;SDS011;5262;59.958;17.726;2023-03-03T00:37:49;3.93;;;0.80;;
10430;SDS011;5262;59.958;17.726;2023-03-03T00:40:23;3.83;;;1.00;;
10430;SDS011;5262;59.958;17.726;2023-03-03T00:42:54;7.27;;;1.13;;
10430;SDS011;5262;59.958;17.726;2023-03-03T00:45:28;7.17;;;0.97;;
10430;SDS011;5262;59.958;17.726;2023-03-03T00:48:06;4.07;;;1.27;;
10430;SDS011;5262;59.958;17.726;2023-03-03T00:50:48;5.87;;;1.33;;
10430;SDS011;5262;59.958;17.726;2023-03-03T00:53:19;5.10;;;1.30;;
10430;SDS011;5262;59.958;17.726;2023-03-03T00:55:47;7.20;;;1.07;;
10430;SDS011;5262;59.958;17.726;2023-03-03T00:58:13;7.13;;;1.27;;
10430;SDS011;5262;59.958;17.726;2023-03-03T01:00:40;3.53;;;1.00;;
10430;SDS011;5262;59.958;17.726;2023-03-03T01:03:06;6.53;;;1.20;;
10430;SDS011;5262;59.958;17.726;2023-03-03T01:05:34;4.67;;;0.97;;
10430;SDS011;5262;59.958;17.726;2023-03-03T01:08:00;4.40;;;1.13;;
10430;SDS011;5262;59.958;17.726;2023-03-03T01:10:27;5.13;;;1.00;;
10430;SDS011;5262;59.958;17.726;2023-03-03T01:12:56;4.50;;;1.03;;
10430;SDS011;5262;59.958;17.726;2023-03-03T01:15:22;5.50;;;1.20;;
10430;SDS011;5262;59.958;17.726;2023-03-03T01:17:48;3.20;;;1.00;;
10430;SDS011;5262;59.958;17.726;2023-03-03T01:20:16;4.40;;;1.30;;
10430;SDS011;5262;59.958;17.726;2023-03-03T01:22:42;5.07;;;1.10;;
10430;SDS011;5262;59.958;17.726;2023-03-03T01:25:08;5.03;;;1.20;;
10430;SDS011;5262;59.958;17.726;2023-03-03T01:27:34;3.07;;;0.97;;
10430;SDS011;5262;59.958;17.726;2023-03-03T01:30:00;5.87;;;1.03;;
10430;SDS011;5262;59.958;17.726;2023-03-03T01:32:27;4.17;;;0.70;;
10430;SDS011;5262;59.958;17.726;2023-03-03T01:34:54;2.83;;;0.90;;
10430;SDS011;5262;59.958;17.726;2023-03-03T01:37:20;2.80;;;1.10;;
10430;SDS011;5262;59.958;17.726;2023-03-03T01:39:49;3.60;;;0.90;;
10430;SDS011;5262;59.958;17.726;2023-03-03T01:42:16;7.40;;;1.23;;
10430;SDS011;5262;59.958;17.726;2023-03-03T01:44:43;3.43;;;0.80;;
10430;SDS011;5262;59.958;17.726;2023-03-03T01:52:21;8.23;;;1.20;;
10430;SDS011;5262;59.958;17.726;2023-03-03T01:54:49;3.80;;;1.27;;
10430;SDS011;5262;59.958;17.726;2023-03-03T01:57:23;5.33;;;1.40;;
10430;SDS011;5262;59.958;17.726;2023-03-03T01:59:55;4.57;;;1.07;;
10430;SDS011;5262;59.958;17.726;2023-03-03T02:02:23;5.83;;;1.37;;
10430;SDS011;5262;59.958;17.726;2023-03-03T02:04:51;2.93;;;1.00;;
10430;SDS011;5262;59.958;17.726;2023-03-03T02:07:16;6.13;;;1.10;;
10430;SDS011;5262;59.958;17.726;2023-03-03T02:09:58;6.90;;;1.40;;
10430;SDS011;5262;59.958;17.726;2023-03-03T02:12:37;5.30;;;1.43;;
10430;SDS011;5262;59.958;17.726;2023-03-03T02:15:15;4.67;;;1.07;;
10430;SDS011;5262;59.958;17.726;2023-03-03T02:17:42;4.70;;;1.20;;
10430;SDS011;5262;59.958;17.726;2023-03-03T02:20:11;2.87;;;0.80;;
10430;SDS011;5262;59.958;17.726;2023-03-03T02:22:40;5.33;;;1.37;;
10430;SDS011;5262;59.958;17.726;2023-03-03T02:25:12;6.90;;;1.23;;
10430;SDS011;5262;59.958;17.726;2023-03-03T02:27:44;5.33;;;1.57;;
10430;SDS011;5262;59.958;17.726;2023-03-03T02:30:12;6.37;;;0.90;;
10430;SDS011;5262;59.958;17.726;2023-03-03T02:32:41;4.23;;;0.90;;
10430;SDS011;5262;59.958;17.726;2023-03-03T02:38:21;4.23;;;1.40;;
10430;SDS011;5262;59.958;17.726;2023-03-03T02:43:32;7.10;;;1.10;;
10430;SDS011;5262;59.958;17.726;2023-03-03T02:46:06;6.70;;;1.00;;
10430;SDS011;5262;59.958;17.726;2023-03-03T02:48:32;6.87;;;0.97;;
10430;SDS011;5262;59.958;17.726;2023-03-03T02:50:58;7.23;;;1.20;;
10430;SDS011;5262;59.958;17.726;2023-03-03T02:53:23;4.60;;;1.00;;
10430;SDS011;5262;59.958;17.726;2023-03-03T02:55:49;4.30;;;1.07;;
10430;SDS011;5262;59.958;17.726;2023-03-03T02:58:14;4.97;;;1.20;;
10430;SDS011;5262;59.958;17.726;2023-03-03T03:00:40;3.17;;;0.90;;
10430;SDS011;5262;59.958;17.726;2023-03-03T03:03:06;5.43;;;1.23;;
10430;SDS011;5262;59.958;17.726;2023-03-03T03:05:31;4.17;;;1.27;;
10430;SDS011;5262;59.958;17.726;2023-03-03T03:07:57;2.73;;;1.20;;
10430;SDS011;5262;59.958;17.726;2023-03-03T03:10:22;5.30;;;1.40;;
10430;SDS011;5262;59.958;17.726;2023-03-03T03:12:48;7.83;;;1.30;;
10430;SDS011;5262;59.958;17.726;2023-03-03T03:15:14;3.37;;;1.03;;
10430;SDS011;5262;59.958;17.726;2023-03-03T03:17:40;4.70;;;1.10;;
10430;SDS011;5262;59.958;17.726;2023-03-03T03:20:05;6.47;;;1.10;;
10430;SDS011;5262;59.958;17.726;2023-03-03T03:22:31;5.40;;;1.03;;
10430;SDS011;5262;59.958;17.726;2023-03-03T03:24:58;5.50;;;1.30;;
10430;SDS011;5262;59.958;17.726;2023-03-03T03:27:24;6.90;;;1.00;;
10430;SDS011;5262;59.958;17.726;2023-03-03T03:29:50;2.73;;;0.70;;
10430;SDS011;5262;59.958;17.726;2023-03-03T03:32:15;3.07;;;1.00;;
10430;SDS011;5262;59.958;17.726;2023-03-03T03:34:42;2.97;;;1.17;;
10430;SDS011;5262;59.958;17.726;2023-03-03T03:37:08;3.10;;;0.90;;
10430;SDS011;5262;59.958;17.726;2023-03-03T03:39:34;4.50;;;1.10;;
10430;SDS011;5262;59.958;17.726;2023-03-03T03:42:00;3.60;;;0.80;;
10430;SDS011;5262;59.958;17.726;2023-03-03T03:44:25;6.67;;;0.93;;
10430;SDS011;5262;59.958;17.726;2023-03-03T03:46:51;7.13;;;1.30;;
10430;SDS011;5262;59.958;17.726;2023-03-03T03:49:16;9.50;;;1.77;;
10430;SDS011;5262;59.958;17.726;2023-03-03T03:51:42;3.13;;;1.00;;
10430;SDS011;5262;59.958;17.726;2023-03-03T03:54:08;6.00;;;1.17;;
10430;SDS011;5262;59.958;17.726;2023-03-03T03:56:33;3.63;;;1.10;;
10430;SDS011;5262;59.958;17.726;2023-03-03T03:58:59;5.37;;;1.20;;
10430;SDS011;5262;59.958;17.726;2023-03-03T04:01:25;5.60;;;1.20;;
10430;SDS011;5262;59.958;17.726;2023-03-03T04:03:51;4.30;;;0.93;;
10430;SDS011;5262;59.958;17.726;2023-03-03T04:06:17;10.43;;;1.50;;
10430;SDS011;5262;59.958;17.726;2023-03-03T04:08:42;7.03;;;1.10;;
10430;SDS011;5262;59.958;17.726;2023-03-03T04:11:08;4.17;;;1.00;;
10430;SDS011;5262;59.958;17.726;2023-03-03T04:13:35;6.60;;;1.20;;
10430;SDS011;5262;59.958;17.726;2023-03-03T04:16:01;7.80;;;1.60;;
10430;SDS011;5262;59.958;17.726;2023-03-03T04:18:27;5.23;;;1.10;;
10430;SDS011;5262;59.958;17.726;2023-03-03T04:20:53;5.67;;;0.80;;
10430;SDS011;5262;59.958;17.726;2023-03-03T04:23:19;3.60;;;0.80;;
10430;SDS011;5262;59.958;17.726;2023-03-03T04:25:45;4.47;;;1.20;;
10430;SDS011;5262;59.958;17.726;2023-03-03T04:28:13;6.90;;;1.10;;
10430;SDS011;5262;59.958;17.726;2023-03-03T04:30:39;5.93;;;1.37;;
10430;SDS011;5262;59.958;17.726;2023-03-03T04:33:05;6.87;;;1.30;;
10430;SDS011;5262;59.958;17.726;2023-03-03T04:35:30;7.03;;;1.47;;
10430;SDS011;5262;59.958;17.726;2023-03-03T04:37:56;5.27;;;1.07;;
10430;SDS011;5262;59.958;17.726;2023-03-03T04:40:22;2.57;;;0.70;;
10430;SDS011;5262;59.958;17.726;2023-03-03T04:42:47;5.53;;;0.90;;
10430;SDS011;5262;59.958;17.726;2023-03-03T04:45:13;4.53;;;1.30;;
10430;SDS011;5262;59.958;17.726;2023-03-03T04:47:39;5.40;;;1.33;;
10430;SDS011;5262;59.958;17.726;2023-03-03T04:50:05;5.50;;;1.20;;
10430;SDS011;5262;59.958;17.726;2023-03-03T04:52:32;6.30;;;1.30;;
10430;SDS011;5262;59.958;17.726;2023-03-03T04:54:57;5.67;;;1.20;;
10430;SDS011;5262;59.958;17.726;2023-03-03T04:57:23;5.93;;;1.10;;
10430;SDS011;5262;59.958;17.726;2023-03-03T04:59:49;4.10;;;1.00;;
10430;SDS011;5262;59.958;17.726;2023-03-03T05:02:15;4.93;;;1.10;;
10430;SDS011;5262;59.958;17.726;2023-03-03T05:04:41;4.40;;;1.10;;
10430;SDS011;5262;59.958;17.726;2023-03-03T05:07:07;4.47;;;1.37;;
10430;SDS011;5262;59.958;17.726;2023-03-03T05:09:33;4.87;;;1.13;;
10430;SDS011;5262;59.958;17.726;2023-03-03T05:11:59;4.67;;;0.90;;
10430;SDS011;5262;59.958;17.726;2023-03-03T05:14:25;10.13;;;1.73;;
10430;SDS011;5262;59.958;17.726;2023-03-03T05:16:51;5.77;;;1.20;;
10430;SDS011;5262;59.958;17.726;2023-03-03T05:19:17;4.50;;;1.43;;
10430;SDS011;5262;59.958;17.726;2023-03-03T05:21:42;5.60;;;1.40;;
10430;SDS011;5262;59.958;17.726;2023-03-03T05:24:09;5.60;;;1.60;;
10430;SDS011;5262;59.958;17.726;2023-03-03T05:26:35;9.53;;;1.43;;
10430;SDS011;5262;59.958;17.726;2023-03-03T05:29:01;7.50;;;1.73;;
10430;SDS011;5262;59.958;17.726;2023-03-03T05:31:27;5.37;;;1.10;;
10430;SDS011;5262;59.958;17.726;2023-03-03T05:33:53;9.47;;;1.40;;
10430;SDS011;5262;59.958;17.726;2023-03-03T05:36:19;5.63;;;1.50;;
10430;SDS011;5262;59.958;17.726;2023-03-03T05:38:44;6.43;;;1.43;;
10430;SDS011;5262;59.958;17.726;2023-03-03T05:41:10;3.93;;;1.30;;
10430;SDS011;5262;59.958;17.726;2023-03-03T05:43:35;10.23;;;1.97;;
10430;SDS011;5262;59.958;17.726;2023-03-03T05:46:01;5.90;;;1.10;;
10430;SDS011;5262;59.958;17.726;2023-03-03T05:48:27;6.90;;;1.10;;
10430;SDS011;5262;59.958;17.726;2023-03-03T05:50:53;8.50;;;1.70;;
10430;SDS011;5262;59.958;17.726;2023-03-03T05:53:23;9.47;;;1.70;;
10430;SDS011;5262;59.958;17.726;2023-03-03T05:55:49;6.30;;;1.03;;
10430;SDS011;5262;59.958;17.726;2023-03-03T05:58:15;5.43;;;1.27;;
10430;SDS011;5262;59.958;17.726;2023-03-03T06:00:40;8.47;;;1.40;;
10430;SDS011;5262;59.958;17.726;2023-03-03T06:03:06;7.00;;;1.23;;
10430;SDS011;5262;59.958;17.726;2023-03-03T06:05:32;6.97;;;1.47;;
10430;SDS011;5262;59.958;17.726;2023-03-03T06:07:57;6.20;;;1.10;;
10430;SDS011;5262;59.958;17.726;2023-03-03T06:10:24;5.50;;;1.30;;
10430;SDS011;5262;59.958;17.726;2023-03-03T06:12:49;5.53;;;1.30;;
10430;SDS011;5262;59.958;17.726;2023-03-03T06:15:16;4.63;;;1.43;;
10430;SDS011;5262;59.958;17.726;2023-03-03T06:17:42;6.07;;;1.43;;
10430;SDS011;5262;59.958;17.726;2023-03-03T06:20:07;4.90;;;1.27;;
10430;SDS011;5262;59.958;17.726;2023-03-03T06:22:33;5.80;;;1.50;;
10430;SDS011;5262;59.958;17.726;2023-03-03T06:24:59;6.60;;;1.40;;
10430;SDS011;5262;59.958;17.726;2023-03-03T06:27:25;7.80;;;1.70;;
10430;SDS011;5262;59.958;17.726;2023-03-03T06:29:50;4.63;;;1.00;;
10430;SDS011;5262;59.958;17.726;2023-03-03T06:32:16;5.80;;;1.47;;
10430;SDS011;5262;59.958;17.726;2023-03-03T06:34:42;7.57;;;1.70;;
10430;SDS011;5262;59.958;17.726;2023-03-03T06:37:07;7.03;;;1.10;;
10430;SDS011;5262;59.958;17.726;2023-03-03T06:39:33;5.67;;;1.53;;
10430;SDS011;5262;59.958;17.726;2023-03-03T06:41:58;5.93;;;1.50;;
10430;SDS011;5262;59.958;17.726;2023-03-03T06:44:24;6.43;;;1.60;;
10430;SDS011;5262;59.958;17.726;2023-03-03T06:46:50;8.70;;;1.50;;
10430;SDS011;5262;59.958;17.726;2023-03-03T06:49:16;4.30;;;1.10;;
10430;SDS011;5262;59.958;17.726;2023-03-03T06:51:41;6.27;;;1.23;;
10430;SDS011;5262;59.958;17.726;2023-03-03T06:54:13;5.30;;;1.10;;
10430;SDS011;5262;59.958;17.726;2023-03-03T06:56:39;7.17;;;1.57;;
10430;SDS011;5262;59.958;17.726;2023-03-03T06:59:11;6.23;;;1.27;;
10430;SDS011;5262;59.958;17.726;2023-03-03T07:01:42;7.80;;;1.97;;
10430;SDS011;5262;59.958;17.726;2023-03-03T07:06:53;9.27;;;1.77;;
10430;SDS011;5262;59.958;17.726;2023-03-03T07:09:27;6.60;;;1.60;;
10430;SDS011;5262;59.958;17.726;2023-03-03T07:12:00;8.83;;;1.33;;
10430;SDS011;5262;59.958;17.726;2023-03-03T07:14:30;9.37;;;1.50;;
10430;SDS011;5262;59.958;17.726;2023-03-03T07:16:59;6.80;;;1.70;;
10430;SDS011;5262;59.958;17.726;2023-03-03T07:19:30;8.37;;;1.70;;
10430;SDS011;5262;59.958;17.726;2023-03-03T07:21:59;4.53;;;1.50;;
10430;SDS011;5262;59.958;17.726;2023-03-03T07:24:39;7.47;;;1.87;;
10430;SDS011;5262;59.958;17.726;2023-03-03T07:29:48;7.33;;;1.40;;
10430;SDS011;5262;59.958;17.726;2023-03-03T07:32:26;11.00;;;2.07;;
10430;SDS011;5262;59.958;17.726;2023-03-03T07:35:01;7.47;;;1.77;;
10430;SDS011;5262;59.958;17.726;2023-03-03T07:37:53;8.67;;;1.50;;
10430;SDS011;5262;59.958;17.726;2023-03-03T07:42:53;6.50;;;1.60;;
10430;SDS011;5262;59.958;17.726;2023-03-03T07:45:20;6.30;;;1.57;;
10430;SDS011;5262;59.958;17.726;2023-03-03T07:48:14;7.63;;;2.07;;
10430;SDS011;5262;59.958;17.726;2023-03-03T07:50:49;9.37;;;2.20;;
10430;SDS011;5262;59.958;17.726;2023-03-03T07:53:36;10.03;;;1.90;;
10430;SDS011;5262;59.958;17.726;2023-03-03T07:56:02;9.77;;;1.80;;
10430;SDS011;5262;59.958;17.726;2023-03-03T07:58:44;11.67;;;1.97;;
10430;SDS011;5262;59.958;17.726;2023-03-03T08:04:12;11.33;;;2.57;;
10430;SDS011;5262;59.958;17.726;2023-03-03T08:06:44;6.73;;;1.97;;
10430;SDS011;5262;59.958;17.726;2023-03-03T08:11:53;10.77;;;2.10;;
10430;SDS011;5262;59.958;17.726;2023-03-03T08:14:39;7.87;;;1.67;;
10430;SDS011;5262;59.958;17.726;2023-03-03T08:17:24;9.80;;;1.60;;
10430;SDS011;5262;59.958;17.726;2023-03-03T08:19:55;10.07;;;1.63;;
10430;SDS011;5262;59.958;17.726;2023-03-03T08:22:32;8.30;;;1.43;;
10430;SDS011;5262;59.958;17.726;2023-03-03T08:25:01;7.43;;;1.90;;
10430;SDS011;5262;59.958;17.726;2023-03-03T08:27:27;9.80;;;1.47;;
10430;SDS011;5262;59.958;17.726;2023-03-03T08:29:53;12.20;;;2.00;;
10430;SDS011;5262;59.958;17.726;2023-03-03T08:32:19;7.30;;;1.80;;
10430;SDS011;5262;59.958;17.726;2023-03-03T08:34:44;5.10;;;1.27;;
10430;SDS011;5262;59.958;17.726;2023-03-03T08:37:10;9.17;;;2.20;;
10430;SDS011;5262;59.958;17.726;2023-03-03T08:39:35;8.27;;;2.10;;
10430;SDS011;5262;59.958;17.726;2023-03-03T08:42:01;9.00;;;1.67;;
10430;SDS011;5262;59.958;17.726;2023-03-03T08:44:27;5.90;;;1.33;;
10430;SDS011;5262;59.958;17.726;2023-03-03T08:46:52;5.37;;;1.60;;
10430;SDS011;5262;59.958;17.726;2023-03-03T08:49:18;4.43;;;1.20;;
10430;SDS011;5262;59.958;17.726;2023-03-03T08:51:45;7.33;;;1.40;;
10430;SDS011;5262;59.958;17.726;2023-03-03T08:54:10;7.30;;;1.53;;
10430;SDS011;5262;59.958;17.726;2023-03-03T08:56:36;7.80;;;1.63;;
10430;SDS011;5262;59.958;17.726;2023-03-03T08:59:02;7.57;;;1.60;;
10430;SDS011;5262;59.958;17.726;2023-03-03T09:01:27;8.07;;;1.93;;
10430;SDS011;5262;59.958;17.726;2023-03-03T09:03:54;2.83;;;1.20;;
10430;SDS011;5262;59.958;17.726;2023-03-03T09:06:19;4.37;;;1.27;;
10430;SDS011;5262;59.958;17.726;2023-03-03T09:08:45;6.33;;;1.20;;
10430;SDS011;5262;59.958;17.726;2023-03-03T09:11:14;6.37;;;1.87;;
10430;SDS011;5262;59.958;17.726;2023-03-03T09:13:48;7.80;;;1.80;;
10430;SDS011;5262;59.958;17.726;2023-03-03T09:16:17;7.23;;;1.67;;
10430;SDS011;5262;59.958;17.726;2023-03-03T09:18:44;5.63;;;1.63;;
10430;SDS011;5262;59.958;17.726;2023-03-03T09:21:24;6.60;;;1.20;;
10430;SDS011;5262;59.958;17.726;2023-03-03T09:23:59;6.10;;;1.30;;
10430;SDS011;5262;59.958;17.726;2023-03-03T09:31:43;4.97;;;0.93;;
10430;SDS011;5262;59.958;17.726;2023-03-03T09:34:22;5.90;;;1.30;;
10430;SDS011;5262;59.958;17.726;2023-03-03T09:37:00;3.23;;;1.00;;
10430;SDS011;5262;59.958;17.726;2023-03-03T09:39:28;5.70;;;0.97;;
10430;SDS011;5262;59.958;17.726;2023-03-03T10:00:57;10.53;;;1.40;;
10430;SDS011;5262;59.958;17.726;2023-03-03T10:16:51;5.27;;;0.93;;
10430;SDS011;5262;59.958;17.726;2023-03-03T10:19:30;4.40;;;1.10;;
10430;SDS011;5262;59.958;17.726;2023-03-03T10:22:12;5.33;;;1.10;;
10430;SDS011;5262;59.958;17.726;2023-03-03T10:24:54;7.50;;;1.20;;
10430;SDS011;5262;59.958;17.726;2023-03-03T10:30:10;4.87;;;1.10;;
10430;SDS011;5262;59.958;17.726;2023-03-03T10:32:48;7.77;;;1.40;;
10430;SDS011;5262;59.958;17.726;2023-03-03T10:38:15;2.00;;;0.93;;
10430;SDS011;5262;59.958;17.726;2023-03-03T10:40:57;4.13;;;1.03;;
10430;SDS011;5262;59.958;17.726;2023-03-03T10:46:36;10.47;;;1.20;;
10430;SDS011;5262;59.958;17.726;2023-03-03T10:52:29;3.37;;;1.00;;
10430;SDS011;5262;59.958;17.726;2023-03-03T10:55:20;4.00;;;0.73;;
10430;SDS011;5262;59.958;17.726;2023-03-03T11:00:36;6.37;;;1.10;;
10430;SDS011;5262;59.958;17.726;2023-03-03T11:08:55;3.93;;;0.90;;
10430;SDS011;5262;59.958;17.726;2023-03-03T11:11:39;2.43;;;0.73;;
10430;SDS011;5262;59.958;17.726;2023-03-03T11:14:25;5.27;;;1.03;;
10430;SDS011;5262;59.958;17.726;2023-03-03T11:26:06;3.57;;;1.10;;
10430;SDS011;5262;59.958;17.726;2023-03-03T11:31:18;8.23;;;1.27;;
10430;SDS011;5262;59.958;17.726;2023-03-03T11:37:03;6.93;;;0.90;;
10430;SDS011;5262;59.958;17.726;2023-03-03T11:39:51;8.90;;;1.73;;
10430;SDS011;5262;59.958;17.726;2023-03-03T11:47:47;6.67;;;1.20;;
10430;SDS011;5262;59.958;17.726;2023-03-03T11:50:31;8.53;;;1.43;;
10430;SDS011;5262;59.958;17.726;2023-03-03T11:53:11;5.60;;;0.90;;
10430;SDS011;5262;59.958;17.726;2023-03-03T11:56:13;4.63;;;1.17;;
10430;SDS011;5262;59.958;17.726;2023-03-03T12:01:56;4.97;;;2.03;;
10430;SDS011;5262;59.958;17.726;2023-03-03T12:04:51;4.20;;;1.10;;
10430;SDS011;5262;59.958;17.726;2023-03-03T12:10:07;4.83;;;1.37;;
10430;SDS011;5262;59.958;17.726;2023-03-03T12:20:50;3.37;;;0.87;;
10430;SDS011;5262;59.958;17.726;2023-03-03T12:23:34;1.43;;;0.53;;
10430;SDS011;5262;59.958;17.726;2023-03-03T12:29:18;3.37;;;1.03;;
10430;SDS011;5262;59.958;17.726;2023-03-03T12:34:59;4.70;;;1.70;;
10430;SDS011;5262;59.958;17.726;2023-03-03T12:45:39;3.87;;;0.90;;
10430;SDS011;5262;59.958;17.726;2023-03-03T12:48:11;2.73;;;1.00;;
10430;SDS011;5262;59.958;17.726;2023-03-03T12:56:35;3.57;;;0.90;;
10430;SDS011;5262;59.958;17.726;2023-03-03T13:06:41;5.37;;;1.17;;
10430;SDS011;5262;59.958;17.726;2023-03-03T13:09:42;2.87;;;0.70;;
10430;SDS011;5262;59.958;17.726;2023-03-03T13:12:29;2.20;;;0.90;;
10430;SDS011;5262;59.958;17.726;2023-03-03T13:17:52;4.43;;;0.80;;
10430;SDS011;5262;59.958;17.726;2023-03-03T13:20:27;4.70;;;1.10;;
10430;SDS011;5262;59.958;17.726;2023-03-03T13:26:05;4.07;;;0.90;;
10430;SDS011;5262;59.958;17.726;2023-03-03T13:29:00;3.70;;;0.83;;
10430;SDS011;5262;59.958;17.726;2023-03-03T13:31:52;3.67;;;0.67;;
10430;SDS011;5262;59.958;17.726;2023-03-03T13:37:04;2.70;;;0.60;;
10430;SDS011;5262;59.958;17.726;2023-03-03T13:39:41;2.33;;;0.70;;
10430;SDS011;5262;59.958;17.726;2023-03-03T13:42:40;1.97;;;0.73;;
10430;SDS011;5262;59.958;17.726;2023-03-03T13:45:20;2.67;;;0.80;;
10430;SDS011;5262;59.958;17.726;2023-03-03T13:50:38;2.90;;;0.70;;
10430;SDS011;5262;59.958;17.726;2023-03-03T13:56:21;3.40;;;0.90;;
10430;SDS011;5262;59.958;17.726;2023-03-03T14:04:51;3.57;;;1.10;;
10430;SDS011;5262;59.958;17.726;2023-03-03T14:07:24;6.33;;;0.73;;
10430;SDS011;5262;59.958;17.726;2023-03-03T14:10:08;6.30;;;1.10;;
10430;SDS011;5262;59.958;17.726;2023-03-03T14:12:57;3.57;;;0.80;;
10430;SDS011;5262;59.958;17.726;2023-03-03T14:15:37;2.83;;;0.60;;
10430;SDS011;5262;59.958;17.726;2023-03-03T14:18:22;1.97;;;0.73;;
10430;SDS011;5262;59.958;17.726;2023-03-03T14:20:55;2.97;;;0.60;;
10430;SDS011;5262;59.958;17.726;2023-03-03T14:26:50;2.93;;;0.77;;
10430;SDS011;5262;59.958;17.726;2023-03-03T14:31:50;1.23;;;0.47;;
10430;SDS011;5262;59.958;17.726;2023-03-03T14:39:49;0.93;;;0.57;;
10430;SDS011;5262;59.958;17.726;2023-03-03T14:42:37;1.97;;;0.60;;
10430;SDS011;5262;59.958;17.726;2023-03-03T14:48:10;3.13;;;0.60;;
10430;SDS011;5262;59.958;17.726;2023-03-03T14:50:56;2.60;;;0.80;;
10430;SDS011;5262;59.958;17.726;2023-03-03T14:53:41;3.80;;;0.50;;
10430;SDS011;5262;59.958;17.726;2023-03-03T14:58:51;2.57;;;0.87;;
10430;SDS011;5262;59.958;17.726;2023-03-03T15:01:30;2.07;;;0.60;;
10430;SDS011;5262;59.958;17.726;2023-03-03T15:09:31;1.37;;;0.47;;
10430;SDS011;5262;59.958;17.726;2023-03-03T15:12:47;3.27;;;0.80;;
10430;SDS011;5262;59.958;17.726;2023-03-03T15:15:16;1.70;;;0.60;;
10430;SDS011;5262;59.958;17.726;2023-03-03T15:17:52;4.00;;;1.17;;
10430;SDS011;5262;59.958;17.726;2023-03-03T15:20:37;1.53;;;0.50;;
10430;SDS011;5262;59.958;17.726;2023-03-03T15:23:11;2.37;;;0.47;;
10430;SDS011;5262;59.958;17.726;2023-03-03T15:31:34;0.63;;;0.30;;
10430;SDS011;5262;59.958;17.726;2023-03-03T15:37:26;1.00;;;0.47;;
10430;SDS011;5262;59.958;17.726;2023-03-03T15:40:04;4.20;;;1.10;;
10430;SDS011;5262;59.958;17.726;2023-03-03T15:51:09;1.67;;;1.03;;
10430;SDS011;5262;59.958;17.726;2023-03-03T16:01:33;2.47;;;0.80;;
10430;SDS011;5262;59.958;17.726;2023-03-03T16:04:05;5.10;;;0.80;;
10430;SDS011;5262;59.958;17.726;2023-03-03T16:17:14;1.50;;;0.40;;
10430;SDS011;5262;59.958;17.726;2023-03-03T16:25:22;1.83;;;0.50;;
10430;SDS011;5262;59.958;17.726;2023-03-03T16:33:59;0.93;;;0.80;;
10430;SDS011;5262;59.958;17.726;2023-03-03T16:36:31;0.67;;;0.60;;
10430;SDS011;5262;59.958;17.726;2023-03-03T16:39:31;0.77;;;0.33;;
10430;SDS011;5262;59.958;17.726;2023-03-03T16:50:21;1.27;;;0.40;;
10430;SDS011;5262;59.958;17.726;2023-03-03T16:55:31;1.50;;;0.53;;
10430;SDS011;5262;59.958;17.726;2023-03-03T16:58:04;0.70;;;0.40;;
10430;SDS011;5262;59.958;17.726;2023-03-03T17:00:49;1.13;;;0.40;;
10430;SDS011;5262;59.958;17.726;2023-03-03T17:06:22;0.97;;;0.33;;
10430;SDS011;5262;59.958;17.726;2023-03-03T17:11:42;0.60;;;0.30;;
10430;SDS011;5262;59.958;17.726;2023-03-03T17:14:22;0.80;;;0.40;;
10430;SDS011;5262;59.958;17.726;2023-03-03T17:16:57;0.50;;;0.40;;
10430;SDS011;5262;59.958;17.726;2023-03-03T17:19:38;1.60;;;0.30;;
10430;SDS011;5262;59.958;17.726;2023-03-03T17:22:28;1.10;;;0.30;;
10430;SDS011;5262;59.958;17.726;2023-03-03T17:30:56;0.67;;;0.20;;
10430;SDS011;5262;59.958;17.726;2023-03-03T17:36:27;0.80;;;0.30;;
10430;SDS011;5262;59.958;17.726;2023-03-03T17:45:13;0.40;;;0.20;;
10430;SDS011;5262;59.958;17.726;2023-03-03T17:55:52;0.30;;;0.20;;
10430;SDS011;5262;59.958;17.726;2023-03-03T18:09:24;1.17;;;0.40;;
10430;SDS011;5262;59.958;17.726;2023-03-03T18:14:53;0.43;;;0.30;;
10430;SDS011;5262;59.958;17.726;2023-03-03T18:23:21;0.63;;;0.37;;
10430;SDS011;5262;59.958;17.726;2023-03-03T18:25:55;0.70;;;0.30;;
10430;SDS011;5262;59.958;17.726;2023-03-03T18:28:36;0.43;;;0.30;;
10430;SDS011;5262;59.958;17.726;2023-03-03T18:31:19;0.70;;;0.37;;
10430;SDS011;5262;59.958;17.726;2023-03-03T18:33:59;0.93;;;0.40;;
10430;SDS011;5262;59.958;17.726;2023-03-03T18:38:57;0.60;;;0.40;;
10430;SDS011;5262;59.958;17.726;2023-03-03T18:41:26;1.10;;;0.70;;
10430;SDS011;5262;59.958;17.726;2023-03-03T18:43:58;0.90;;;0.50;;
10430;SDS011;5262;59.958;17.726;2023-03-03T18:46:47;1.70;;;0.73;;
10430;SDS011;5262;59.958;17.726;2023-03-03T18:49:14;0.30;;;0.20;;
10430;SDS011;5262;59.958;17.726;2023-03-03T18:59:37;1.13;;;0.60;;
10430;SDS011;5262;59.958;17.726;2023-03-03T19:04:43;0.43;;;0.30;;
10430;SDS011;5262;59.958;17.726;2023-03-03T19:10:06;1.20;;;0.67;;
10430;SDS011;5262;59.958;17.726;2023-03-03T19:12:47;2.23;;;0.40;;
10430;SDS011;5262;59.958;17.726;2023-03-03T19:20:42;0.97;;;0.57;;
10430;SDS011;5262;59.958;17.726;2023-03-03T19:32:41;1.80;;;1.60;;
10430;SDS011;5262;59.958;17.726;2023-03-03T19:37:56;2.17;;;1.53;;
10430;SDS011;5262;59.958;17.726;2023-03-03T19:40:26;1.50;;;0.60;;
10430;SDS011;5262;59.958;17.726;2023-03-03T19:48:15;0.80;;;0.40;;
10430;SDS011;5262;59.958;17.726;2023-03-03T19:50:45;0.60;;;0.33;;
10430;SDS011;5262;59.958;17.726;2023-03-03T19:53:26;0.37;;;0.37;;
10430;SDS011;5262;59.958;17.726;2023-03-03T20:10:34;1.37;;;0.50;;
10430;SDS011;5262;59.958;17.726;2023-03-03T20:14:07;1.87;;;0.60;;
10430;SDS011;5262;59.958;17.726;2023-03-03T20:16:36;1.93;;;0.87;;
10430;SDS011;5262;59.958;17.726;2023-03-03T20:27:35;1.10;;;0.20;;
10430;SDS011;5262;59.958;17.726;2023-03-03T20:33:05;4.37;;;0.60;;
10430;SDS011;5262;59.958;17.726;2023-03-03T20:35:59;1.80;;;0.70;;
10430;SDS011;5262;59.958;17.726;2023-03-03T20:44:01;1.30;;;0.60;;
10430;SDS011;5262;59.958;17.726;2023-03-03T20:49:17;1.20;;;0.40;;
10430;SDS011;5262;59.958;17.726;2023-03-03T20:51:57;0.93;;;0.40;;
10430;SDS011;5262;59.958;17.726;2023-03-03T20:54:40;1.17;;;0.43;;
10430;SDS011;5262;59.958;17.726;2023-03-03T20:57:21;0.80;;;0.57;;
10430;SDS011;5262;59.958;17.726;2023-03-03T21:03:09;1.70;;;0.53;;
10430;SDS011;5262;59.958;17.726;2023-03-03T21:11:22;1.53;;;0.50;;
10430;SDS011;5262;59.958;17.726;2023-03-03T21:13:54;1.03;;;0.50;;
10430;SDS011;5262;59.958;17.726;2023-03-03T21:18:59;3.17;;;0.60;;
10430;SDS011;5262;59.958;17.726;2023-03-03T21:21:30;1.07;;;0.30;;
10430;SDS011;5262;59.958;17.726;2023-03-03T21:23:58;1.30;;;0.40;;
10430;SDS011;5262;59.958;17.726;2023-03-03T21:26:43;1.37;;;0.60;;
10430;SDS011;5262;59.958;17.726;2023-03-03T21:29:16;2.03;;;0.37;;
10430;SDS011;5262;59.958;17.726;2023-03-03T21:31:49;1.60;;;0.57;;
10430;SDS011;5262;59.958;17.726;2023-03-03T21:34:21;1.60;;;0.40;;
10430;SDS011;5262;59.958;17.726;2023-03-03T21:36:49;0.93;;;0.43;;
10430;SDS011;5262;59.958;17.726;2023-03-03T21:39:23;1.30;;;0.50;;